createdAt,value
2018-04-29T04:11:21.192Z,84.16
2018-04-29T04:11:46.670Z,84.26
2018-04-29T04:12:12.137Z,84.64
2018-04-29T04:12:37.673Z,84.55
2018-04-29T04:13:03.177Z,84.55
2018-04-29T04:13:28.622Z,84.26
2018-04-29T04:13:54.120Z,84.36
2018-04-29T04:14:19.548Z,84.45
2018-04-29T04:14:45.026Z,84.74
2018-04-29T04:15:10.483Z,84.64
2018-04-29T04:15:35.923Z,84.83
2018-04-29T04:16:01.418Z,84.74
2018-04-29T04:16:26.854Z,84.55
2018-04-29T04:16:52.365Z,84.74
2018-04-29T04:17:17.790Z,84.64
2018-04-29T04:17:43.294Z,84.45
2018-04-29T04:18:08.814Z,84.64
2018-04-29T04:18:34.270Z,84.64
2018-04-29T04:18:59.717Z,84.83
2018-04-29T04:19:25.265Z,84.64
2018-04-29T04:19:50.714Z,84.83
2018-04-29T04:20:16.157Z,84.83
2018-04-29T04:20:41.578Z,85.02
2018-04-29T04:21:07.055Z,84.64
2018-04-29T04:21:32.557Z,84.74
2018-04-29T04:21:57.990Z,84.64
2018-04-29T04:22:23.433Z,84.74
2018-04-29T04:22:48.876Z,84.74
2018-04-29T04:23:14.349Z,84.83
2018-04-29T04:23:39.924Z,84.64
2018-04-29T04:24:05.378Z,84.74
2018-04-29T04:24:30.780Z,84.36
2018-04-29T04:24:56.265Z,85.02
2018-04-29T04:25:21.740Z,85.02
2018-04-29T04:25:47.247Z,84.83
2018-04-29T04:26:12.689Z,85.02
2018-04-29T04:26:38.152Z,84.92
2018-04-29T04:27:03.640Z,85.02
2018-04-29T04:27:29.132Z,84.92
2018-04-29T04:27:54.532Z,85.12
2018-04-29T04:28:20.021Z,84.83
2018-04-29T04:28:45.462Z,85.02
2018-04-29T04:29:10.909Z,85.02
2018-04-29T04:29:36.411Z,85.12
2018-04-29T04:30:01.824Z,85.21
2018-04-29T04:30:27.305Z,84.83
2018-04-29T04:30:52.817Z,85.02
2018-04-29T04:31:18.298Z,84.55
2018-04-29T04:31:43.720Z,84.55
2018-04-29T04:32:09.182Z,84.36
2018-04-29T04:32:34.654Z,84.74
2018-04-29T04:33:00.617Z,84.64
2018-04-29T04:33:26.181Z,84.55
2018-04-29T04:33:51.610Z,84.64
2018-04-29T04:34:17.167Z,84.45
2018-04-29T04:34:42.532Z,84.26
2018-04-29T04:35:07.975Z,84.64
2018-04-29T04:35:33.461Z,84.74
2018-04-29T04:35:58.894Z,84.64
2018-04-29T04:36:24.363Z,84.74
2018-04-29T04:36:49.839Z,84.64
2018-04-29T04:37:15.346Z,84.64
2018-04-29T04:37:40.784Z,85.12
2018-04-29T04:38:06.258Z,85.02
2018-04-29T04:38:31.735Z,84.45
2018-04-29T04:38:57.211Z,85.12
2018-04-29T04:39:22.615Z,84.74
2018-04-29T04:39:48.107Z,84.74
2018-04-29T04:40:13.627Z,84.83
2018-04-29T04:40:39.027Z,84.74
2018-04-29T04:41:04.597Z,85.02
2018-04-29T04:41:30.024Z,84.74
2018-04-29T04:41:55.466Z,85.02
2018-04-29T04:42:21.031Z,84.45
2018-04-29T04:42:46.472Z,84.74
2018-04-29T04:43:11.942Z,84.92
2018-04-29T04:43:37.390Z,84.74
2018-04-29T04:44:02.849Z,84.69
2018-04-29T04:44:28.313Z,84.49
2018-04-29T04:44:53.865Z,84.64
2018-04-29T04:45:19.265Z,84.45
2018-04-29T04:45:44.795Z,84.64
2018-04-29T04:46:10.412Z,84.45
2018-04-29T04:46:35.888Z,84.74
2018-04-29T04:47:01.474Z,84.59
2018-04-29T04:47:26.902Z,84.49
2018-04-29T04:47:52.307Z,84.45
2018-04-29T04:48:17.795Z,84.74
2018-04-29T04:48:43.284Z,84.88
2018-04-29T04:49:08.757Z,84.97
2018-04-29T04:49:34.215Z,84.49
2018-04-29T04:49:59.661Z,84.4
2018-04-29T04:50:25.161Z,84.4
2018-04-29T04:50:50.575Z,84.3
2018-04-29T04:51:16.105Z,84.69
2018-04-29T04:51:41.532Z,84.59
2018-04-29T04:52:07.037Z,84.69
2018-04-29T04:52:32.460Z,84.59
2018-04-29T04:52:57.906Z,84.3
2018-04-29T04:53:23.447Z,84.69
2018-04-29T04:53:48.888Z,84.69
2018-04-29T04:54:14.346Z,84.2
2018-04-29T04:54:39.805Z,84.2
2018-04-29T04:55:05.279Z,84.4
2018-04-29T04:55:30.796Z,84.01
2018-04-29T04:55:56.229Z,84.2
2018-04-29T04:56:21.694Z,84.01
2018-04-29T04:56:47.184Z,84.3
2018-04-29T04:57:12.611Z,84.01
2018-04-29T04:57:38.115Z,84.01
2018-04-29T04:58:03.616Z,83.92
2018-04-29T04:58:29.030Z,83.83
2018-04-29T04:58:54.497Z,83.92
2018-04-29T04:59:19.922Z,84.01
2018-04-29T04:59:45.388Z,84.2
2018-04-29T05:00:10.844Z,84.2
2018-04-29T05:00:36.305Z,84.2
2018-04-29T05:01:01.781Z,84.4
2018-04-29T05:01:27.288Z,84.01
2018-04-29T05:01:52.726Z,84.3
2018-04-29T05:02:18.236Z,84.49
2018-04-29T05:02:43.747Z,84.01
2018-04-29T05:03:09.204Z,83.92
2018-04-29T05:03:34.689Z,84.2
2018-04-29T05:04:00.191Z,83.83
2018-04-29T05:04:25.677Z,83.73
2018-04-29T05:04:51.094Z,84.01
2018-04-29T05:05:16.543Z,83.73
2018-04-29T05:05:42.062Z,83.83
2018-04-29T05:06:07.546Z,84.01
2018-04-29T05:06:32.967Z,84.01
2018-04-29T05:06:58.445Z,83.92
2018-04-29T05:07:23.935Z,83.83
2018-04-29T05:07:49.383Z,83.83
2018-04-29T05:08:14.855Z,83.64
2018-04-29T05:08:40.296Z,83.73
2018-04-29T05:09:05.773Z,83.92
2018-04-29T05:09:31.282Z,84.11
2018-04-29T05:09:56.749Z,83.64
2018-04-29T05:10:22.222Z,84.01
2018-04-29T05:10:47.731Z,83.83
2018-04-29T05:11:13.177Z,84.01
2018-04-29T05:11:38.626Z,83.83
2018-04-29T05:12:04.074Z,83.83
2018-04-29T05:12:29.597Z,84.11
2018-04-29T05:12:54.971Z,83.92
2018-04-29T05:13:20.441Z,83.92
2018-04-29T05:13:45.953Z,84.01
2018-04-29T05:14:11.469Z,84.11
2018-04-29T05:14:36.891Z,83.92
2018-04-29T05:15:02.327Z,84.01
2018-04-29T05:15:27.810Z,84.11
2018-04-29T05:15:53.317Z,84.11
2018-04-29T05:16:18.820Z,84.11
2018-04-29T05:16:44.324Z,84.01
2018-04-29T05:17:09.784Z,83.83
2018-04-29T05:17:35.240Z,84.01
2018-04-29T05:18:00.701Z,84.3
2018-04-29T05:18:26.161Z,83.54
2018-04-29T05:18:51.894Z,83.64
2018-04-29T05:19:17.529Z,83.44
2018-04-29T05:19:43.153Z,83.64
2018-04-29T05:20:08.656Z,83.44
2018-04-29T05:20:34.792Z,83.54
2018-04-29T05:21:00.955Z,83.25
2018-04-29T05:21:26.445Z,83.64
2018-04-29T05:21:52.343Z,83.67
2018-04-29T05:22:18.125Z,83.64
2018-04-29T05:22:43.635Z,83.44
2018-04-29T05:23:09.245Z,83.54
2018-04-29T05:23:35.131Z,83.54
2018-04-29T05:24:01.135Z,83.44
2018-04-29T05:24:26.771Z,83.44
2018-04-29T05:24:52.427Z,83.73
2018-04-29T05:25:18.552Z,83.44
2018-04-29T05:25:44.703Z,83.54
2018-04-29T05:26:11.152Z,83.44
2018-04-29T05:26:36.903Z,83.35
2018-04-29T05:27:03.306Z,83.48
2018-04-29T05:27:29.419Z,83.44
2018-04-29T05:27:55.737Z,83.44
2018-04-29T05:28:21.828Z,83.44
2018-04-29T05:28:47.039Z,83.29
2018-04-29T05:29:12.489Z,83.01
2018-04-29T05:29:38.019Z,83.67
2018-04-29T05:30:03.492Z,83.01
2018-04-29T05:30:28.916Z,83.01
2018-04-29T05:30:54.371Z,83.11
2018-04-29T05:31:19.826Z,83.2
2018-04-29T05:31:45.328Z,83.11
2018-04-29T05:32:10.801Z,83.01
2018-04-29T05:32:36.245Z,82.72
2018-04-29T05:33:01.704Z,82.43
2018-04-29T05:33:27.165Z,82.43
2018-04-29T05:33:52.681Z,83.05
2018-04-29T05:34:18.136Z,82.19
2018-04-29T05:34:43.609Z,82.19
2018-04-29T05:35:09.042Z,81.9
2018-04-29T05:35:34.549Z,81.71
2018-04-29T05:36:00.090Z,81.52
2018-04-29T05:36:25.496Z,80.8
2018-04-29T05:36:50.989Z,80.9
2018-04-29T05:37:16.427Z,80.9
2018-04-29T05:37:41.928Z,80.32
2018-04-29T05:38:07.386Z,79.94
2018-04-29T05:38:32.817Z,79.56
2018-04-29T05:38:58.277Z,79.08
2018-04-29T05:39:23.806Z,78.36
2018-04-29T05:39:49.324Z,78.45
2018-04-29T05:40:14.813Z,77.78
2018-04-29T05:40:40.269Z,77.87
2018-04-29T05:41:05.803Z,77.21
2018-04-29T05:41:31.285Z,77.5
2018-04-29T05:41:56.706Z,76.92
2018-04-29T05:42:22.258Z,76.73
2018-04-29T05:42:47.670Z,77.01
2018-04-29T05:43:13.140Z,77.34
2018-04-29T05:43:38.634Z,76.67
2018-04-29T05:44:04.090Z,76.86
2018-04-29T05:44:29.586Z,76.57
2018-04-29T05:44:55.020Z,76.96
2018-04-29T05:45:20.512Z,76.48
2018-04-29T05:45:45.949Z,76.1
2018-04-29T05:46:11.471Z,76.57
2018-04-29T05:46:37.000Z,75.71
2018-04-29T05:47:02.443Z,76.2
2018-04-29T05:47:27.925Z,74.66
2018-04-29T05:47:53.356Z,74.95
2018-04-29T05:48:18.850Z,74.95
2018-04-29T05:48:44.321Z,74.57
2018-04-29T05:49:09.795Z,74.76
2018-04-29T05:49:35.231Z,74.8
2018-04-29T05:50:00.712Z,74.57
2018-04-29T05:50:26.220Z,74.7
2018-04-29T05:50:51.685Z,74.51
2018-04-29T05:51:17.152Z,74.7
2018-04-29T05:51:42.669Z,74.99
2018-04-29T05:52:08.070Z,74.7
2018-04-29T05:52:33.519Z,74.04
2018-04-29T05:52:59.029Z,74.13
2018-04-29T05:53:24.478Z,74.22
2018-04-29T05:53:49.966Z,74.41
2018-04-29T05:54:15.430Z,74.13
2018-04-29T05:54:40.970Z,74.22
2018-04-29T05:55:06.407Z,73.46
2018-04-29T05:55:31.866Z,73.97
2018-04-29T05:55:57.394Z,73.21
2018-04-29T05:56:22.843Z,73.3
2018-04-29T05:56:49.061Z,72.73
2018-04-29T05:57:14.672Z,72.92
2018-04-29T05:57:40.294Z,72.83
2018-04-29T05:58:05.890Z,72.34
2018-04-29T05:58:31.329Z,72.25
2018-04-29T05:58:58.301Z,72.44
2018-04-29T05:59:24.859Z,72.54
2018-04-29T05:59:50.019Z,72.06
2018-04-29T06:00:15.965Z,72.06
2018-04-29T06:00:41.828Z,72.12
2018-04-29T06:01:07.403Z,72.02
2018-04-29T06:01:33.542Z,72.02
2018-04-29T06:01:58.972Z,72.12
2018-04-29T06:02:24.847Z,72.6
2018-04-29T06:02:50.366Z,72.5
2018-04-29T06:03:15.984Z,72.22
2018-04-29T06:03:41.655Z,72.88
2018-04-29T06:04:07.858Z,72.69
2018-04-29T06:04:33.127Z,73.02
2018-04-29T06:04:58.751Z,72.34
2018-04-29T06:05:24.591Z,72.25
2018-04-29T06:05:50.871Z,72.44
2018-04-29T06:06:17.188Z,72.54
2018-04-29T06:06:43.362Z,72.44
2018-04-29T06:07:11.305Z,73.11
2018-04-29T06:07:37.524Z,72.92
2018-04-29T06:08:04.047Z,72.44
2018-04-29T06:08:29.645Z,72.48
2018-04-29T06:08:56.478Z,72.58
2018-04-29T06:09:22.466Z,72.29
2018-04-29T06:09:48.366Z,72.19
2018-04-29T06:10:13.571Z,72.09
2018-04-29T06:10:39.353Z,72
2018-04-29T06:11:04.931Z,72.09
2018-04-29T06:11:31.474Z,71.75
2018-04-29T06:11:58.211Z,71.17
2018-04-29T06:12:23.732Z,71.37
2018-04-29T06:12:49.305Z,70.6
2018-04-29T06:13:14.840Z,70.41
2018-04-29T06:13:40.465Z,70.21
2018-04-29T06:14:06.452Z,70.12
2018-04-29T06:14:31.613Z,69.26
2018-04-29T06:14:57.220Z,68.78
2018-04-29T06:15:22.831Z,68.68
2018-04-29T06:15:48.547Z,68.4
2018-04-29T06:16:14.080Z,68.68
2018-04-29T06:16:39.730Z,68.4
2018-04-29T06:17:05.275Z,68.01
2018-04-29T06:17:31.200Z,68.21
2018-04-29T06:17:56.994Z,68.3
2018-04-29T06:18:22.924Z,68.01
2018-04-29T06:18:48.342Z,68.59
2018-04-29T06:19:13.837Z,68.68
2018-04-29T06:19:39.714Z,68.49
2018-04-29T06:20:05.186Z,68.87
2018-04-29T06:20:30.694Z,69.26
2018-04-29T06:20:56.205Z,68.21
2018-04-29T06:21:21.743Z,68.3
2018-04-29T06:21:47.424Z,68.97
2018-04-29T06:22:12.917Z,68.59
2018-04-29T06:22:38.414Z,68.68
2018-04-29T06:23:03.875Z,68.49
2018-04-29T06:23:29.620Z,68.49
2018-04-29T06:23:55.099Z,68.68
2018-04-29T06:24:20.542Z,68.59
2018-04-29T06:24:46.030Z,68.49
2018-04-29T06:25:11.560Z,68.59
2018-04-29T06:25:40.727Z,68.4
2018-04-29T06:26:37.378Z,68.59
2018-04-29T06:27:04.259Z,68.68
2018-04-29T06:27:29.806Z,68.59
2018-04-29T06:27:55.302Z,68.3
2018-04-29T06:28:20.693Z,68.17
2018-04-29T06:28:46.430Z,68.74
2018-04-29T06:29:11.935Z,68.49
2018-04-29T06:29:37.390Z,68.07
2018-04-29T06:30:02.865Z,68.27
2018-04-29T06:30:28.295Z,68.17
2018-04-29T06:30:53.808Z,68.4
2018-04-29T06:31:19.246Z,68.59
2018-04-29T06:31:44.721Z,68.3
2018-04-29T06:32:10.550Z,68.49
2018-04-29T06:32:36.339Z,68.59
2018-04-29T06:33:01.931Z,67.91
2018-04-29T06:33:27.421Z,68.21
2018-04-29T06:33:52.908Z,68.21
2018-04-29T06:34:18.409Z,67.54
2018-04-29T06:34:43.905Z,67.34
2018-04-29T06:35:09.392Z,67.54
2018-04-29T06:35:34.921Z,67.44
2018-04-29T06:36:00.404Z,67.44
2018-04-29T06:36:25.896Z,67.34
2018-04-29T06:36:51.292Z,67.15
2018-04-29T06:37:16.768Z,67.15
2018-04-29T06:37:42.211Z,67.25
2018-04-29T06:38:07.718Z,67.44
2018-04-29T06:38:33.284Z,67.15
2018-04-29T06:38:58.847Z,67.25
2018-04-29T06:39:24.463Z,67.34
2018-04-29T06:39:49.860Z,67.25
2018-04-29T06:40:15.353Z,67.34
2018-04-29T06:40:40.747Z,67.25
2018-04-29T06:41:06.293Z,67.44
2018-04-29T06:41:31.697Z,67.44
2018-04-29T06:41:57.238Z,67.54
2018-04-29T06:42:22.660Z,67.44
2018-04-29T06:42:48.142Z,67.34
2018-04-29T06:43:13.644Z,67.25
2018-04-29T06:43:39.125Z,67.25
2018-04-29T06:44:04.545Z,67.15
2018-04-29T06:44:30.044Z,67.34
2018-04-29T06:44:55.506Z,67.44
2018-04-29T06:45:21.000Z,66.77
2018-04-29T06:45:46.560Z,66.67
2018-04-29T06:46:12.046Z,66.86
2018-04-29T06:46:37.426Z,67.05
2018-04-29T06:47:02.944Z,66.96
2018-04-29T06:47:28.355Z,66.77
2018-04-29T06:47:53.833Z,66.77
2018-04-29T06:48:19.375Z,66.86
2018-04-29T06:48:44.826Z,67.05
2018-04-29T06:49:10.309Z,66.48
2018-04-29T06:49:35.807Z,66.19
2018-04-29T06:50:01.265Z,65.81
2018-04-29T06:50:26.887Z,66
2018-04-29T06:50:52.189Z,65.42
2018-04-29T06:51:17.699Z,65.52
2018-04-29T06:51:43.138Z,65.52
2018-04-29T06:52:08.636Z,65.71
2018-04-29T06:52:34.161Z,65.71
2018-04-29T06:52:59.595Z,65.65
2018-04-29T06:53:25.157Z,65.14
2018-04-29T06:53:50.619Z,65.52
2018-04-29T06:54:16.076Z,65.52
2018-04-29T06:54:41.483Z,64.85
2018-04-29T06:55:06.967Z,64.85
2018-04-29T06:55:32.443Z,65.23
2018-04-29T06:55:57.885Z,64.85
2018-04-29T06:56:23.395Z,64.28
2018-04-29T06:56:48.844Z,64.37
2018-04-29T06:57:14.386Z,63.8
2018-04-29T06:57:39.857Z,63.89
2018-04-29T06:58:05.330Z,63.99
2018-04-29T06:58:30.769Z,63.99
2018-04-29T06:58:56.244Z,64.18
2018-04-29T06:59:21.668Z,65.05
2018-04-29T06:59:47.177Z,64.95
2018-04-29T07:00:13.089Z,65.14
2018-04-29T07:00:38.564Z,65.52
2018-04-29T07:01:03.980Z,65.33
2018-04-29T07:01:29.487Z,65.42
2018-04-29T07:01:54.970Z,65.52
2018-04-29T07:02:20.432Z,65.52
2018-04-29T07:02:45.860Z,65.62
2018-04-29T07:03:11.388Z,65.71
2018-04-29T07:03:36.875Z,65.71
2018-04-29T07:04:02.328Z,65.91
2018-04-29T07:04:27.807Z,65.91
2018-04-29T07:04:53.255Z,65.91
2018-04-29T07:05:18.757Z,65.62
2018-04-29T07:05:44.236Z,65.52
2018-04-29T07:06:09.746Z,65.52
2018-04-29T07:06:35.213Z,65.91
2018-04-29T07:07:00.711Z,65.71
2018-04-29T07:07:26.203Z,65.71
2018-04-29T07:07:51.674Z,65.71
2018-04-29T07:08:17.235Z,65.23
2018-04-29T07:08:42.643Z,65.42
2018-04-29T07:09:08.297Z,65.14
2018-04-29T07:09:33.899Z,65.23
2018-04-29T07:09:59.400Z,65.33
2018-04-29T07:10:24.840Z,65.33
2018-04-29T07:10:50.329Z,65.14
2018-04-29T07:11:15.866Z,65.71
2018-04-29T07:11:41.282Z,65.52
2018-04-29T07:12:06.771Z,65.52
2018-04-29T07:12:32.215Z,66.64
2018-04-29T07:12:57.697Z,66.19
2018-04-29T07:13:23.589Z,66.25
2018-04-29T07:13:49.291Z,66.54
2018-04-29T07:14:14.822Z,66.25
2018-04-29T07:14:40.254Z,66.16
2018-04-29T07:15:05.865Z,66.16
2018-04-29T07:15:31.407Z,66.45
2018-04-29T07:15:56.984Z,66.74
2018-04-29T07:16:22.380Z,66.45
2018-04-29T07:16:47.948Z,66.74
2018-04-29T07:17:13.359Z,66.93
2018-04-29T07:17:38.879Z,66.64
2018-04-29T07:18:04.373Z,66.25
2018-04-29T07:18:29.866Z,66.45
2018-04-29T07:18:55.338Z,65.42
2018-04-29T07:19:20.863Z,65.62
2018-04-29T07:19:46.483Z,65.62
2018-04-29T07:20:12.066Z,65.62
2018-04-29T07:20:37.609Z,65.33
2018-04-29T07:21:02.989Z,65.14
2018-04-29T07:21:28.491Z,64.85
2018-04-29T07:21:53.912Z,64.95
2018-04-29T07:22:19.392Z,65.05
2018-04-29T07:22:44.942Z,63.92
2018-04-29T07:23:10.370Z,64.4
2018-04-29T07:23:35.888Z,64.09
2018-04-29T07:24:01.325Z,64.22
2018-04-29T07:24:26.821Z,63.92
2018-04-29T07:24:52.450Z,64.02
2018-04-29T07:25:17.899Z,63.83
2018-04-29T07:25:43.393Z,63.92
2018-04-29T07:26:09.135Z,63.57
2018-04-29T07:26:34.729Z,63.48
2018-04-29T07:27:00.427Z,63.29
2018-04-29T07:27:25.863Z,62.42
2018-04-29T07:27:51.335Z,62.33
2018-04-29T07:28:16.869Z,62.71
2018-04-29T07:28:42.336Z,62.23
2018-04-29T07:29:07.851Z,61.69
2018-04-29T07:29:33.365Z,61.88
2018-04-29T07:29:58.901Z,61.85
2018-04-29T07:30:24.391Z,61.4
2018-04-29T07:30:50.004Z,61.98
2018-04-29T07:31:15.989Z,61.21
2018-04-29T07:31:41.614Z,61.21
2018-04-29T07:32:07.516Z,60.72
2018-04-29T07:32:33.971Z,60.82
2018-04-29T07:32:59.087Z,60.92
2018-04-29T07:33:24.613Z,60.15
2018-04-29T07:33:50.171Z,60.53
2018-04-29T07:34:16.546Z,59.96
2018-04-29T07:34:45.476Z,60.12
2018-04-29T07:35:11.152Z,60.41
2018-04-29T07:35:36.658Z,60.79
2018-04-29T07:36:02.177Z,61.18
2018-04-29T07:36:27.859Z,61.27
2018-04-29T07:36:53.347Z,60.99
2018-04-29T07:37:18.957Z,60.99
2018-04-29T07:37:44.339Z,61.66
2018-04-29T07:38:09.905Z,61.66
2018-04-29T07:38:35.771Z,61.75
2018-04-29T07:39:01.148Z,61.66
2018-04-29T07:39:26.971Z,61.72
2018-04-29T07:39:52.683Z,62.1
2018-04-29T07:40:18.179Z,62.01
2018-04-29T07:40:43.569Z,62.3
2018-04-29T07:41:09.463Z,62.39
2018-04-29T07:41:34.962Z,63.06
2018-04-29T07:42:00.526Z,63.06
2018-04-29T07:42:26.060Z,62.87
2018-04-29T07:42:51.890Z,63.42
2018-04-29T07:43:17.194Z,63.83
2018-04-29T07:43:42.816Z,63.51
2018-04-29T07:44:08.649Z,63.54
2018-04-29T07:44:34.074Z,63.45
2018-04-29T07:44:59.914Z,63.32
2018-04-29T07:45:25.428Z,63.35
2018-04-29T07:45:51.059Z,63.54
2018-04-29T07:46:16.482Z,63.54
2018-04-29T07:46:42.403Z,64.02
2018-04-29T07:47:07.929Z,64.12
2018-04-29T07:47:33.470Z,63.83
2018-04-29T07:47:58.954Z,63.73
2018-04-29T07:48:24.411Z,63.92
2018-04-29T07:48:49.925Z,63.92
2018-04-29T07:49:15.436Z,63.92
2018-04-29T07:49:40.990Z,63.92
2018-04-29T07:50:06.421Z,63.83
2018-04-29T07:50:31.937Z,63.83
2018-04-29T07:50:57.483Z,63.92
2018-04-29T07:51:22.948Z,63.73
2018-04-29T07:51:48.444Z,63.35
2018-04-29T07:52:14.056Z,63.45
2018-04-29T07:52:39.563Z,63.92
2018-04-29T07:53:04.870Z,64.02
2018-04-29T07:53:30.611Z,64.02
2018-04-29T07:53:56.188Z,64.02
2018-04-29T07:54:21.660Z,64.02
2018-04-29T07:54:47.450Z,64.02
2018-04-29T07:55:12.773Z,63.7
2018-04-29T07:55:38.288Z,63.99
2018-04-29T07:56:03.821Z,64.18
2018-04-29T07:56:29.531Z,64.18
2018-04-29T07:56:55.191Z,64.37
2018-04-29T07:57:20.701Z,64.76
2018-04-29T07:57:46.400Z,64.95
2018-04-29T07:58:12.298Z,64.85
2018-04-29T07:58:37.987Z,64.76
2018-04-29T07:59:03.968Z,64.85
2018-04-29T07:59:29.920Z,65.42
2018-04-29T07:59:55.463Z,65.91
2018-04-29T08:00:20.999Z,65.62
2018-04-29T08:00:46.529Z,65.42
2018-04-29T08:01:11.995Z,65.71
2018-04-29T08:01:37.770Z,65.62
2018-04-29T08:02:05.315Z,65.81
2018-04-29T08:02:31.642Z,65.62
2018-04-29T08:02:57.563Z,65.62
2018-04-29T08:03:23.081Z,65.62
2018-04-29T08:03:49.056Z,65.52
2018-04-29T08:04:15.260Z,65.52
2018-04-29T08:04:41.712Z,65.62
2018-04-29T08:05:07.926Z,65.81
2018-04-29T08:05:33.732Z,66.48
2018-04-29T08:05:59.240Z,66.38
2018-04-29T08:06:24.893Z,66.19
2018-04-29T08:06:50.279Z,66.58
2018-04-29T08:07:16.192Z,66.48
2018-04-29T08:07:42.400Z,66.48
2018-04-29T08:08:07.893Z,66.48
2018-04-29T08:08:33.404Z,66.48
2018-04-29T08:08:59.214Z,66.09
2018-04-29T08:09:25.072Z,66.29
2018-04-29T08:09:54.507Z,66.67
2018-04-29T08:10:21.248Z,66.58
2018-04-29T08:10:47.445Z,66.96
2018-04-29T08:11:14.772Z,66.58
2018-04-29T08:11:40.239Z,66.38
2018-04-29T08:12:06.087Z,67.15
2018-04-29T08:12:31.895Z,66.86
2018-04-29T08:12:57.337Z,67.05
2018-04-29T08:13:22.946Z,67.34
2018-04-29T08:13:48.927Z,67.15
2018-04-29T08:14:16.959Z,66.48
2018-04-29T08:14:44.609Z,66.67
2018-04-29T08:15:10.868Z,66.48
2018-04-29T08:15:36.454Z,66.38
2018-04-29T08:16:02.327Z,66.48
2018-04-29T08:16:28.132Z,66.67
2018-04-29T08:16:56.630Z,66.38
2018-04-29T08:17:22.370Z,66.67
2018-04-29T08:17:47.849Z,66.48
2018-04-29T08:18:14.365Z,66.96
2018-04-29T08:18:40.265Z,66.58
2018-04-29T08:19:06.152Z,66.38
2018-04-29T08:19:31.385Z,66.38
2018-04-29T08:19:57.066Z,66.48
2018-04-29T08:20:22.833Z,66.19
2018-04-29T08:20:48.971Z,66.19
2018-04-29T08:21:13.945Z,66.38
2018-04-29T08:21:39.604Z,66.09
2018-04-29T08:22:05.094Z,66
2018-04-29T08:22:30.624Z,66.48
2018-04-29T08:22:56.160Z,66.48
2018-04-29T08:23:21.684Z,66.58
2018-04-29T08:23:47.131Z,66.48
2018-04-29T08:24:12.627Z,66.48
2018-04-29T08:24:38.209Z,66.67
2018-04-29T08:25:03.636Z,66.38
2018-04-29T08:25:29.119Z,66.29
2018-04-29T08:25:54.652Z,66.77
2018-04-29T08:26:20.035Z,67.05
2018-04-29T08:26:45.509Z,66.96
2018-04-29T08:27:10.950Z,66.96
2018-04-29T08:27:36.460Z,67.25
2018-04-29T08:28:01.940Z,67.15
2018-04-29T08:28:27.386Z,67.72
2018-04-29T08:28:52.849Z,67.54
2018-04-29T08:29:18.270Z,67.44
2018-04-29T08:29:43.782Z,67.54
2018-04-29T08:30:09.272Z,67.54
2018-04-29T08:30:34.730Z,67.63
2018-04-29T08:31:00.162Z,68.49
2018-04-29T08:31:25.633Z,68.49
2018-04-29T08:31:51.096Z,68.27
2018-04-29T08:32:16.503Z,68.07
2018-04-29T08:32:42.009Z,68.65
2018-04-29T08:33:07.469Z,68.65
2018-04-29T08:33:32.965Z,68.74
2018-04-29T08:33:58.453Z,68.65
2018-04-29T08:34:23.910Z,69.13
2018-04-29T08:34:49.379Z,69.32
2018-04-29T08:35:14.852Z,69.42
2018-04-29T08:35:40.290Z,69.03
2018-04-29T08:36:05.777Z,69.51
2018-04-29T08:36:31.214Z,69.23
2018-04-29T08:36:56.671Z,69.6
2018-04-29T08:37:22.095Z,70.09
2018-04-29T08:37:47.557Z,70.31
2018-04-29T08:38:13.047Z,70.56
2018-04-29T08:38:38.528Z,71.04
2018-04-29T08:39:03.995Z,71.04
2018-04-29T08:39:29.523Z,71.17
2018-04-29T08:39:54.963Z,70.98
2018-04-29T08:40:20.408Z,70.89
2018-04-29T08:40:45.908Z,71.46
2018-04-29T08:41:11.432Z,71.17
2018-04-29T08:41:36.900Z,70.7
2018-04-29T08:42:02.379Z,70.89
2018-04-29T08:42:27.820Z,71.37
2018-04-29T08:42:53.337Z,71.37
2018-04-29T08:43:18.826Z,71.84
2018-04-29T08:43:44.374Z,72.38
2018-04-29T08:44:09.757Z,72.09
2018-04-29T08:44:35.266Z,72
2018-04-29T08:45:00.721Z,72.29
2018-04-29T08:45:26.182Z,73.15
2018-04-29T08:45:51.651Z,74.01
2018-04-29T08:46:17.142Z,74.3
2018-04-29T08:46:42.613Z,74.58
2018-04-29T08:47:08.080Z,74.77
2018-04-29T08:47:33.502Z,74.58
2018-04-29T08:47:58.966Z,75.16
2018-04-29T08:48:24.430Z,74.58
2018-04-29T08:48:49.919Z,74.4
2018-04-29T08:49:15.489Z,74.3
2018-04-29T08:49:40.924Z,74.01
2018-04-29T08:50:06.433Z,74.49
2018-04-29T08:50:31.867Z,74.77
2018-04-29T08:50:57.284Z,74.77
2018-04-29T08:51:22.802Z,75.07
2018-04-29T08:51:48.259Z,75.07
2018-04-29T08:52:13.886Z,75.16
2018-04-29T08:52:39.405Z,75.54
2018-04-29T08:53:04.922Z,75.35
2018-04-29T08:53:30.624Z,74.97
2018-04-29T08:53:55.934Z,75.16
2018-04-29T08:54:21.389Z,75.35
2018-04-29T08:54:46.848Z,75.07
2018-04-29T08:55:12.302Z,75.07
2018-04-29T08:55:37.821Z,75.83
2018-04-29T08:56:03.418Z,75.26
2018-04-29T08:56:28.768Z,75.26
2018-04-29T08:56:54.177Z,75.35
2018-04-29T08:57:19.679Z,75.64
2018-04-29T08:57:45.158Z,75.54
2018-04-29T08:58:10.628Z,75.73
2018-04-29T08:58:36.096Z,75.83
2018-04-29T08:59:01.604Z,75.48
2018-04-29T08:59:27.071Z,75.1
2018-04-29T08:59:52.527Z,76.35
2018-04-29T09:00:17.962Z,75.58
2018-04-29T09:00:43.460Z,74.91
2018-04-29T09:01:08.950Z,74.72
2018-04-29T09:01:34.521Z,75.2
2018-04-29T09:01:59.998Z,75.01
2018-04-29T09:02:25.623Z,74.47
2018-04-29T09:02:51.156Z,73.9
2018-04-29T09:03:16.768Z,74.27
2018-04-29T09:03:42.329Z,74.37
2018-04-29T09:04:07.697Z,74.18
2018-04-29T09:04:33.209Z,73.61
2018-04-29T09:04:58.661Z,73.8
2018-04-29T09:05:24.099Z,72.55
2018-04-29T09:05:49.611Z,70.35
2018-04-29T09:06:15.091Z,70.54
2018-04-29T09:06:40.547Z,70.73
2018-04-29T09:07:06.052Z,70.54
2018-04-29T09:07:31.502Z,71.4
2018-04-29T09:07:56.917Z,71.11
2018-04-29T09:08:22.409Z,71.11
2018-04-29T09:08:48.384Z,71.59
2018-04-29T09:09:13.800Z,70.44
2018-04-29T09:09:39.293Z,70.15
2018-04-29T09:10:04.859Z,70.83
2018-04-29T09:10:30.309Z,70.83
2018-04-29T09:10:55.720Z,71.31
2018-04-29T09:11:21.194Z,71.11
2018-04-29T09:11:46.800Z,71.31
2018-04-29T09:12:12.298Z,71.21
2018-04-29T09:12:37.812Z,71.31
2018-04-29T09:13:03.272Z,71.11
2018-04-29T09:13:28.692Z,70.54
2018-04-29T09:13:54.209Z,70.64
2018-04-29T09:14:19.686Z,71.21
2018-04-29T09:14:46.092Z,71.98
2018-04-29T09:15:11.584Z,72.27
2018-04-29T09:15:37.074Z,71.69
2018-04-29T09:16:02.700Z,72.45
2018-04-29T09:16:28.143Z,72.27
2018-04-29T09:16:53.654Z,71.78
2018-04-29T09:17:19.266Z,71.88
2018-04-29T09:17:44.774Z,71.11
2018-04-29T09:18:10.220Z,71.31
2018-04-29T09:18:35.717Z,70.54
2018-04-29T09:19:01.206Z,70.44
2018-04-29T09:19:26.751Z,69.93
2018-04-29T09:19:52.175Z,69.77
2018-04-29T09:20:17.607Z,70.03
2018-04-29T09:20:43.191Z,69.17
2018-04-29T09:21:08.774Z,69.45
2018-04-29T09:21:34.190Z,69.64
2018-04-29T09:21:59.753Z,70.12
2018-04-29T09:22:25.296Z,70.41
2018-04-29T09:22:50.766Z,70.89
2018-04-29T09:23:16.225Z,70.31
2018-04-29T09:23:41.800Z,69.93
2018-04-29T09:24:07.298Z,69.74
2018-04-29T09:24:32.960Z,69.54
2018-04-29T09:24:58.645Z,70.03
2018-04-29T09:25:24.111Z,69.93
2018-04-29T09:25:49.561Z,69.74
2018-04-29T09:26:15.064Z,70.12
2018-04-29T09:26:40.601Z,70.41
2018-04-29T09:27:06.066Z,70.03
2018-04-29T09:27:31.762Z,70.12
2018-04-29T09:27:57.347Z,70.31
2018-04-29T09:28:22.938Z,70.31
2018-04-29T09:28:48.430Z,70.79
2018-04-29T09:29:13.917Z,70.6
2018-04-29T09:29:39.637Z,70.7
2018-04-29T09:30:05.227Z,70.7
2018-04-29T09:30:31.725Z,69.83
2018-04-29T09:30:57.195Z,70.7
2018-04-29T09:31:22.791Z,70.6
2018-04-29T09:31:48.430Z,70.7
2018-04-29T09:32:13.934Z,70.7
2018-04-29T09:32:40.293Z,70.41
2018-04-29T09:33:05.695Z,70.6
2018-04-29T09:33:31.609Z,70.79
2018-04-29T09:33:56.900Z,70.89
2018-04-29T09:34:22.667Z,70.89
2018-04-29T09:34:48.264Z,70.7
2018-04-29T09:35:13.846Z,71.02
2018-04-29T09:35:39.391Z,70.41
2018-04-29T09:36:04.805Z,70.41
2018-04-29T09:36:30.363Z,70.6
2018-04-29T09:36:55.885Z,70.6
2018-04-29T09:37:21.320Z,70.25
2018-04-29T09:37:46.771Z,70.7
2018-04-29T09:38:12.220Z,69.96
2018-04-29T09:38:37.749Z,70.64
2018-04-29T09:39:03.278Z,70.89
2018-04-29T09:39:28.696Z,70.44
2018-04-29T09:39:54.258Z,70.73
2018-04-29T09:40:19.865Z,70.44
2018-04-29T09:40:45.280Z,70.73
2018-04-29T09:41:10.776Z,69.96
2018-04-29T09:41:36.354Z,69.77
2018-04-29T09:42:01.788Z,69.96
2018-04-29T09:42:27.258Z,70.44